createdAt,value
2017-08-24T09:42:27.196Z,25.30
2017-08-24T09:44:54.076Z,25.40
2017-08-24T09:47:21.423Z,25.50
2017-08-24T09:49:48.692Z,25.70
2017-08-24T09:52:15.781Z,25.70
2017-08-24T09:54:42.994Z,25.70
2017-08-24T09:57:11.070Z,25.80
2017-08-24T09:59:38.820Z,26.10
2017-08-24T10:02:06.272Z,26.10
2017-08-24T10:04:35.174Z,26.20
2017-08-24T10:07:04.995Z,26.30
2017-08-24T10:09:32.734Z,26.50
2017-08-24T10:12:00.408Z,26.50
2017-08-24T10:14:29.017Z,26.60
2017-08-24T10:16:56.550Z,26.70
2017-08-24T10:19:24.271Z,26.80
2017-08-24T10:21:51.441Z,26.80
2017-08-24T10:24:18.782Z,26.90
2017-08-24T10:26:46.263Z,27.10
2017-08-24T10:29:13.861Z,27.30
2017-08-24T10:31:40.865Z,27.30
2017-08-24T10:34:08.067Z,27.40
2017-08-24T10:41:40.563Z,27.50
2017-08-24T10:44:08.468Z,27.60
2017-08-24T10:46:36.115Z,27.50
2017-08-24T10:49:03.620Z,27.40
2017-08-24T10:51:30.571Z,27.50
2017-08-24T10:53:57.994Z,27.40
2017-08-24T10:56:28.861Z,27.30
2017-08-24T10:58:56.607Z,27.60
2017-08-24T11:01:25.071Z,27.60
2017-08-24T11:03:54.405Z,27.70
2017-08-24T11:06:22.097Z,27.70
2017-08-24T11:08:49.728Z,27.90
2017-08-24T11:11:17.343Z,28.20
2017-08-24T11:13:45.328Z,28.40
2017-08-24T11:16:13.417Z,28.60
2017-08-24T11:18:40.898Z,28.60
2017-08-24T11:21:12.347Z,28.60
2017-08-24T11:23:39.930Z,28.60
2017-08-24T11:26:07.549Z,28.60
2017-08-24T11:28:35.036Z,28.80
2017-08-24T11:31:02.485Z,29.00
2017-08-24T11:33:30.252Z,29.00
2017-08-24T11:35:58.224Z,29.00
2017-08-24T11:38:25.248Z,29.10
2017-08-24T11:40:52.273Z,29.20
2017-08-24T11:43:19.221Z,29.30
2017-08-24T11:45:46.910Z,29.30
2017-08-24T11:48:13.846Z,29.20
2017-08-24T11:50:41.102Z,29.30
2017-08-24T11:53:08.427Z,29.50
2017-08-24T11:55:35.732Z,29.50
2017-08-24T11:58:04.214Z,29.60
2017-08-24T12:00:31.446Z,29.70
2017-08-24T12:02:58.833Z,29.90
2017-08-24T12:05:25.769Z,30.00
2017-08-24T12:07:52.781Z,30.10
2017-08-24T12:10:19.934Z,30.10
2017-08-24T12:12:47.255Z,30.10
2017-08-24T12:15:14.863Z,30.20
2017-08-24T12:17:42.339Z,30.30
2017-08-24T12:20:09.694Z,30.40
2017-08-24T12:22:36.606Z,30.50
2017-08-24T12:25:04.469Z,30.60
2017-08-24T12:27:31.792Z,30.70
2017-08-24T12:29:59.949Z,30.90
2017-08-24T12:32:26.867Z,31.00
2017-08-24T12:34:53.863Z,31.20
2017-08-24T12:37:20.808Z,31.30
2017-08-24T12:39:47.989Z,31.20
2017-08-24T12:42:15.379Z,31.30
2017-08-24T12:44:43.637Z,31.50
2017-08-24T12:47:10.909Z,31.40
2017-08-24T12:49:37.766Z,31.60
2017-08-24T12:52:04.885Z,31.80
2017-08-24T12:54:32.013Z,31.80
2017-08-24T12:56:59.303Z,31.90
2017-08-24T12:59:26.672Z,31.90
2017-08-24T13:01:54.122Z,32.00
2017-08-24T13:04:21.169Z,32.10
2017-08-24T13:06:48.602Z,32.00
2017-08-24T13:09:16.132Z,32.10
2017-08-24T13:11:43.531Z,32.10
2017-08-24T13:14:10.946Z,32.20
2017-08-24T13:16:37.890Z,32.10
2017-08-24T13:19:05.042Z,32.20
2017-08-24T13:21:32.325Z,32.30
2017-08-24T13:23:59.325Z,32.20
2017-08-24T13:26:26.956Z,32.20
2017-08-24T13:28:53.903Z,32.30
2017-08-24T13:31:20.800Z,32.40
2017-08-24T13:33:48.387Z,32.70
2017-08-24T13:36:16.686Z,32.60
2017-08-24T13:38:43.949Z,32.60
2017-08-24T13:41:11.234Z,32.50
2017-08-24T13:43:39.351Z,32.70
2017-08-24T13:46:06.884Z,32.70
2017-08-24T13:48:34.342Z,32.80
2017-08-24T13:51:01.898Z,33.00
2017-08-24T13:53:29.499Z,33.10
2017-08-24T13:55:56.433Z,33.00
2017-08-24T13:58:23.628Z,33.10
2017-08-24T14:00:51.388Z,33.20
2017-08-24T14:03:18.588Z,33.20
2017-08-24T14:05:46.038Z,33.30
2017-08-24T14:08:13.515Z,33.30
2017-08-24T14:10:41.061Z,33.30
2017-08-24T14:13:09.132Z,33.30
2017-08-24T14:15:36.030Z,33.40
2017-08-24T14:18:05.562Z,33.20
2017-08-24T14:20:35.041Z,33.10
2017-08-24T14:23:02.849Z,33.00
2017-08-24T14:25:30.028Z,32.90
2017-08-24T14:27:57.487Z,32.90
2017-08-24T14:30:24.940Z,32.90
2017-08-24T14:32:52.601Z,32.80
2017-08-24T14:35:19.981Z,32.80
2017-08-24T14:37:47.622Z,32.80
2017-08-24T14:40:15.578Z,32.90
2017-08-24T14:42:43.147Z,32.90
2017-08-24T14:45:11.079Z,33.10
2017-08-24T14:47:38.398Z,33.10
2017-08-24T14:50:06.067Z,33.10
2017-08-24T14:52:33.001Z,33.10
2017-08-24T14:54:59.949Z,33.00
2017-08-24T14:57:27.245Z,32.80
2017-08-24T14:59:54.661Z,32.40
2017-08-24T15:02:21.624Z,32.00
2017-08-24T15:04:48.707Z,31.70
2017-08-24T15:07:16.153Z,31.60
2017-08-24T15:09:43.518Z,31.30
2017-08-24T15:12:11.037Z,30.90
2017-08-24T15:14:38.371Z,30.60
2017-08-24T15:17:05.260Z,30.20
2017-08-24T15:19:32.221Z,29.80
2017-08-24T15:21:59.113Z,29.50
2017-08-24T15:24:26.235Z,29.30
2017-08-24T15:26:53.639Z,28.90
2017-08-24T15:29:21.409Z,28.70
2017-08-24T15:31:49.460Z,28.50
2017-08-24T15:34:19.876Z,28.30
2017-08-24T15:36:47.743Z,28.20
2017-08-24T15:39:17.292Z,28.10
2017-08-24T15:41:44.414Z,27.80
2017-08-24T15:44:11.941Z,27.70
2017-08-24T15:46:39.662Z,27.60
2017-08-24T15:49:07.252Z,27.30
2017-08-24T15:51:34.447Z,27.30
2017-08-24T15:54:01.805Z,27.20
2017-08-24T15:56:29.147Z,26.80
2017-08-24T15:58:56.917Z,25.80
2017-08-24T16:01:25.222Z,24.50
2017-08-24T16:03:52.473Z,22.70
2017-08-24T16:06:20.006Z,21.00
2017-08-24T16:08:47.315Z,19.90
2017-08-24T16:11:14.282Z,19.20
2017-08-24T16:13:41.106Z,18.90
2017-08-24T16:16:08.396Z,18.90
2017-08-24T16:18:35.317Z,18.90
2017-08-24T16:21:02.525Z,19.00
2017-08-24T16:23:29.733Z,19.10
2017-08-24T16:25:57.210Z,19.30
2017-08-24T16:28:24.661Z,19.30
2017-08-24T16:30:51.589Z,19.40
2017-08-24T16:33:18.957Z,19.40
2017-08-24T16:35:46.118Z,19.30
2017-08-24T16:38:13.542Z,19.40
2017-08-24T16:40:41.049Z,19.40
2017-08-24T16:43:07.963Z,19.50
2017-08-24T16:45:34.857Z,19.50
2017-08-24T16:48:01.773Z,19.50
2017-08-24T16:50:28.764Z,19.50
2017-08-24T16:52:55.927Z,19.60
2017-08-24T16:55:23.725Z,19.60
2017-08-24T16:57:51.923Z,19.60
2017-08-24T17:00:19.105Z,19.60
2017-08-24T17:02:46.431Z,19.50
2017-08-24T17:05:13.767Z,19.50
2017-08-24T17:07:41.224Z,19.50
2017-08-24T17:10:08.757Z,19.40
2017-08-24T17:12:35.657Z,19.30
2017-08-24T17:15:02.841Z,19.20
2017-08-24T17:17:30.322Z,19.20
2017-08-24T17:19:57.792Z,19.20
2017-08-24T17:22:24.738Z,19.20
2017-08-24T17:24:51.822Z,19.20
2017-08-24T17:27:19.115Z,19.10
2017-08-24T17:29:46.670Z,19.20
2017-08-24T17:32:13.985Z,19.20
2017-08-24T17:34:41.516Z,19.20
2017-08-24T17:37:09.172Z,19.20
2017-08-24T17:39:36.182Z,19.20
2017-08-24T17:42:03.080Z,19.30
2017-08-24T17:44:30.426Z,19.30
2017-08-24T17:46:57.780Z,19.30
2017-08-24T17:49:26.222Z,19.20
2017-08-24T17:51:54.288Z,19.20
2017-08-24T17:54:21.572Z,19.20
2017-08-24T17:56:49.100Z,19.10
2017-08-24T17:59:17.954Z,19.10
2017-08-24T18:01:46.213Z,19.00
2017-08-24T18:04:13.203Z,18.90
2017-08-24T18:06:40.103Z,18.90
2017-08-24T18:09:08.019Z,18.90
2017-08-24T18:11:35.283Z,18.90
2017-08-24T18:14:02.654Z,18.90
2017-08-24T18:16:30.007Z,18.80
2017-08-24T18:18:57.179Z,18.80
2017-08-24T18:21:24.399Z,18.70
2017-08-24T18:23:51.673Z,18.60
2017-08-24T18:26:19.344Z,18.60
2017-08-24T18:28:46.226Z,18.60
2017-08-24T18:31:13.275Z,18.60
2017-08-24T18:33:40.558Z,18.70
2017-08-24T18:36:07.869Z,18.70
2017-08-24T18:38:35.288Z,18.70
2017-08-24T18:41:02.772Z,18.60
2017-08-24T18:43:29.774Z,18.50
2017-08-24T18:45:57.082Z,18.50
2017-08-24T18:48:24.504Z,18.50
2017-08-24T18:50:51.842Z,18.50
2017-08-24T18:53:19.853Z,18.40
2017-08-24T18:55:47.497Z,18.40
2017-08-24T18:58:14.954Z,18.40
2017-08-24T19:00:42.342Z,18.40
2017-08-24T19:03:09.897Z,18.50
2017-08-24T19:05:40.355Z,18.50
2017-08-24T19:08:07.698Z,18.50
2017-08-24T19:10:37.537Z,18.40
2017-08-24T19:13:04.888Z,18.40
2017-08-24T19:15:31.817Z,18.40
2017-08-24T19:17:58.914Z,18.40
2017-08-24T19:20:27.108Z,18.30
2017-08-24T19:22:54.363Z,18.30
2017-08-24T19:25:21.607Z,18.20
2017-08-24T19:27:48.988Z,18.30
2017-08-24T19:30:16.834Z,18.30
2017-08-24T19:32:44.257Z,18.30
2017-08-24T19:35:11.860Z,18.30
2017-08-24T19:37:41.732Z,18.30
2017-08-24T19:40:09.221Z,18.30
2017-08-24T19:42:38.551Z,18.20
2017-08-24T19:45:05.561Z,18.20
2017-08-24T19:47:32.396Z,18.20
2017-08-24T19:49:59.301Z,18.20
2017-08-24T19:52:26.455Z,18.30
2017-08-24T19:54:53.750Z,18.40
2017-08-24T19:57:21.145Z,18.40
2017-08-24T19:59:49.508Z,18.30
2017-08-24T20:02:16.679Z,18.30
2017-08-24T20:04:44.100Z,18.30
2017-08-24T20:07:11.677Z,18.30
2017-08-24T20:09:38.547Z,18.30
2017-08-24T20:12:05.832Z,18.20
2017-08-24T20:14:32.696Z,18.20
2017-08-24T20:17:00.416Z,18.20
2017-08-24T20:19:27.412Z,18.10
2017-08-24T20:21:54.480Z,18.10
2017-08-24T20:24:21.820Z,18.10
2017-08-24T20:26:49.356Z,18.10
2017-08-24T20:29:16.928Z,18.10
2017-08-24T20:31:45.398Z,18.00
2017-08-24T20:34:12.662Z,18.10
2017-08-24T20:36:39.604Z,18.10
2017-08-24T20:39:06.574Z,18.10
2017-08-24T20:41:33.944Z,18.10
2017-08-24T20:44:01.359Z,18.10
2017-08-24T20:46:28.252Z,18.10
2017-08-24T20:48:55.255Z,18.10
2017-08-24T20:51:22.804Z,18.00
2017-08-24T20:53:51.601Z,18.10
2017-08-24T20:56:19.383Z,18.10
2017-08-24T20:58:46.372Z,18.10
2017-08-24T21:01:13.864Z,18.00
2017-08-24T21:03:40.801Z,18.10
2017-08-24T21:09:01.987Z,18.10
2017-08-24T21:11:29.281Z,17.90
2017-08-24T21:13:56.635Z,17.90
